Time;durP1;ratioP1;P1;durP2;ratioP2;P2;SDS_P1;SDS_P2;PMS_P1;PMS_P2;Temp;Humidity;BMP_temperature;BMP_pressure;BME280_temperature;BME280_humidity;BME280_pressure;Samples;Min_cycle;Max_cycle;Signal;HPM_P1;HPM_P2
2023/06/08 00:01:25;;;;;;;32.45;10.55;;;;;;;-144.73;100.00;54218.88;5050192;28;20048;-71
2023/06/08 00:03:52;;;;;;;30.25;11.95;;;;;;;-144.73;100.00;54243.50;5051685;28;20415;-69
2023/06/08 00:06:20;;;;;;;42.08;12.75;;;;;;;-144.73;100.00;54280.44;5048009;28;20516;-69
2023/06/08 00:08:46;;;;;;;31.95;12.25;;;;;;;-144.73;100.00;54231.19;5050932;28;20009;-69
2023/06/08 00:11:12;;;;;;;42.67;13.00;;;;;;;-144.73;100.00;54251.72;5054243;28;20136;-69
2023/06/08 00:13:37;;;;;;;37.72;13.45;;;;;;;-144.73;100.00;54233.25;5055420;28;20033;-70
2023/06/08 00:16:03;;;;;;;33.35;12.18;;;;;;;-144.73;100.00;54247.59;5056196;28;20020;-70
2023/06/08 00:18:30;;;;;;;41.25;12.70;;;;;;;-144.73;100.00;54255.81;5058649;28;20021;-70
2023/06/08 00:20:56;;;;;;;37.05;12.13;;;;;;;-144.73;100.00;54231.19;5066262;28;20026;-69
2023/06/08 00:23:21;;;;;;;34.65;12.10;;;;;;;-144.73;100.00;54249.66;5054500;28;20526;-69
2023/06/08 00:25:47;;;;;;;40.97;12.85;;;;;;;-144.73;100.00;54247.59;5054789;28;20048;-69
2023/06/08 00:28:12;;;;;;;41.33;14.52;;;;;;;-144.73;100.00;54280.44;5053926;28;20024;-69
2023/06/08 00:30:38;;;;;;;34.70;12.75;;;;;;;-144.73;100.00;54255.81;5072323;28;20025;-69
2023/06/08 00:33:04;;;;;;;47.00;13.30;;;;;;;-144.73;100.00;54206.56;5051087;28;20024;-69
2023/06/08 00:35:30;;;;;;;37.75;13.25;;;;;;;-144.73;100.00;54251.72;5053167;28;20024;-69
2023/06/08 00:37:55;;;;;;;45.72;14.65;;;;;;;-144.73;100.00;54231.19;5054441;28;20495;-69
2023/06/08 00:40:21;;;;;;;30.63;13.00;;;;;;;-144.73;100.00;54251.72;5054425;28;20059;-69
2023/06/08 00:42:46;;;;;;;51.50;12.82;;;;;;;-144.73;100.00;54243.50;5053851;28;20086;-70
2023/06/08 00:45:11;;;;;;;44.28;14.45;;;;;;;-144.73;100.00;54243.50;5071513;28;20472;-70
2023/06/08 00:47:37;;;;;;;43.42;14.73;;;;;;;-144.73;100.00;54222.97;5071705;28;20040;-71
2023/06/08 00:50:07;;;;;;;48.55;15.82;;;;;;;-144.73;100.00;54247.59;5053900;28;20063;-70
2023/06/08 00:52:32;;;;;;;51.45;15.05;;;;;;;-144.73;100.00;54276.34;5050362;28;20040;-70
2023/06/08 00:55:00;;;;;;;38.22;13.95;;;;;;;-144.73;100.00;54278.41;5050743;28;20032;-70
2023/06/08 00:57:28;;;;;;;42.88;14.38;;;;;;;-144.73;100.00;54227.09;5070316;28;20491;-71
2023/06/08 00:59:55;;;;;;;30.05;13.18;;;;;;;-144.73;100.00;54239.41;5052928;28;20035;-70
2023/06/08 01:02:23;;;;;;;38.55;14.32;;;;;;;-144.73;100.00;54247.59;5053046;28;20037;-69
2023/06/08 01:04:50;;;;;;;39.00;14.68;;;;;;;-144.73;100.00;54235.28;5071119;28;20024;-69
2023/06/08 01:07:34;;;;;;;41.45;15.00;;;;;;;-144.73;100.00;54284.56;5052233;28;20029;-69
2023/06/08 01:10:12;;;;;;;43.42;14.73;;;;;;;-144.73;100.00;54296.88;5068118;28;20029;-72
2023/06/08 01:12:51;;;;;;;37.08;13.35;;;;;;;-144.73;100.00;54222.97;5068304;28;20029;-72
2023/06/08 01:15:25;;;;;;;38.88;14.93;;;;;;;-144.73;100.00;54251.72;5071336;28;20027;-72
2023/06/08 01:17:57;;;;;;;37.92;14.15;;;;;;;-144.73;100.00;54214.78;5051469;28;20173;-71
2023/06/08 01:20:36;;;;;;;41.55;14.93;;;;;;;-144.73;100.00;54245.56;5070865;28;20036;-71
2023/06/08 01:23:13;;;;;;;45.30;15.90;;;;;;;-144.73;100.00;54222.97;5067948;28;20033;-71
2023/06/08 01:25:38;;;;;;;37.17;15.45;;;;;;;-144.73;100.00;54259.91;5051602;28;20020;-71
2023/06/08 01:28:12;;;;;;;42.80;16.45;;;;;;;-144.73;100.00;54227.09;5052445;28;20104;-72
2023/06/08 01:30:42;;;;;;;51.88;17.70;;;;;;;-144.73;100.00;54249.66;5068708;28;20111;-69
2023/06/08 01:33:14;;;;;;;43.08;16.60;;;;;;;-144.73;100.00;54309.19;5071603;28;20029;-72
2023/06/08 01:35:40;;;;;;;47.72;16.52;;;;;;;-144.73;100.00;54247.59;5051072;28;20028;-73
2023/06/08 01:38:23;;;;;;;40.65;16.98;;;;;;;-144.73;100.00;54288.66;5052523;28;20032;-72
2023/06/08 01:40:54;;;;;;;48.78;17.83;;;;;;;-144.73;100.00;54243.50;5052323;28;20024;-72
2023/06/08 01:43:21;;;;;;;48.83;17.50;;;;;;;-144.73;100.00;54255.81;5051827;28;20040;-73
2023/06/08 01:45:49;;;;;;;54.08;17.30;;;;;;;-144.73;100.00;54292.75;5053297;28;20038;-72
2023/06/08 01:48:17;;;;;;;46.10;17.38;;;;;;;-144.73;100.00;54255.81;5069743;28;20410;-73
2023/06/08 01:50:43;;;;;;;42.03;18.55;;;;;;;-144.73;100.00;54342.03;5070787;28;20029;-72
2023/06/08 01:53:09;;;;;;;48.40;17.33;;;;;;;-144.73;100.00;54280.44;5050346;28;20040;-71
2023/06/08 01:55:35;;;;;;;39.67;16.85;;;;;;;-144.73;100.00;54292.75;5052722;28;20031;-72
2023/06/08 01:58:00;;;;;;;55.40;19.73;;;;;;;-144.73;100.00;54239.41;5051971;28;20029;-71
2023/06/08 02:00:26;;;;;;;49.75;18.98;;;;;;;-144.73;100.00;54231.19;5052695;28;20079;-72
2023/06/08 02:02:51;;;;;;;40.45;18.13;;;;;;;-144.73;100.00;54342.03;5052059;28;20029;-71
2023/06/08 02:05:18;;;;;;;46.38;18.65;;;;;;;-144.73;100.00;54264.03;5051647;28;20028;-71
2023/06/08 02:07:43;;;;;;;52.60;22.65;;;;;;;-144.73;100.00;54247.59;5052436;28;20028;-71
2023/06/08 02:10:10;;;;;;;47.03;22.38;;;;;;;-144.73;100.00;54255.81;5052681;28;20078;-71
2023/06/08 02:12:35;;;;;;;54.50;23.52;;;;;;;-144.73;100.00;54214.78;5051746;28;20032;-71
2023/06/08 02:15:01;;;;;;;55.47;23.15;;;;;;;-144.73;100.00;54249.66;5070838;28;20039;-71
2023/06/08 02:17:29;;;;;;;54.53;22.85;;;;;;;-144.73;100.00;54214.78;5051771;28;20081;-71
2023/06/08 02:19:55;;;;;;;57.75;21.70;;;;;;;-144.73;100.00;54292.75;5052570;28;20020;-71
2023/06/08 02:22:20;;;;;;;54.80;24.08;;;;;;;-144.73;100.00;54229.13;5050898;28;20086;-71
2023/06/08 02:24:46;;;;;;;56.53;24.52;;;;;;;-144.73;100.00;54276.34;5050800;28;20032;-72
2023/06/08 02:27:13;;;;;;;50.05;23.67;;;;;;;-144.73;100.00;54268.13;5069444;28;20081;-71
2023/06/08 02:29:39;;;;;;;62.72;25.85;;;;;;;-144.73;100.00;54255.81;5050247;28;20339;-71
2023/06/08 02:32:05;;;;;;;59.80;25.27;;;;;;;-144.73;100.00;54239.41;5050810;28;20032;-71
2023/06/08 02:34:31;;;;;;;60.53;25.90;;;;;;;-144.73;100.00;54284.56;5051450;28;20047;-71
2023/06/08 02:36:57;;;;;;;71.68;25.83;;;;;;;-144.73;100.00;54251.72;5047311;28;20025;-71
2023/06/08 02:39:22;;;;;;;54.10;24.45;;;;;;;-144.73;100.00;54276.34;5069456;28;20088;-71
2023/06/08 02:41:48;;;;;;;53.35;23.95;;;;;;;-144.73;100.00;54276.34;5051310;28;20108;-72
2023/06/08 02:44:13;;;;;;;61.05;25.42;;;;;;;-144.73;100.00;54276.34;5057933;28;20024;-71
2023/06/08 02:46:39;;;;;;;68.32;25.30;;;;;;;-144.73;100.00;54264.03;5066988;28;20107;-71
2023/06/08 02:49:04;;;;;;;63.58;25.92;;;;;;;-144.73;100.00;54288.66;5059999;28;20040;-71
2023/06/08 02:51:30;;;;;;;63.25;26.08;;;;;;;-144.73;100.00;54251.72;5062569;28;20514;-71
2023/06/08 02:53:56;;;;;;;88.88;32.63;;;;;;;-144.73;100.00;54298.91;5047623;28;20029;-71
2023/06/08 02:56:21;;;;;;;85.72;29.50;;;;;;;-144.73;100.00;54235.28;5050890;28;20074;-71
2023/06/08 02:58:47;;;;;;;71.97;30.45;;;;;;;-144.73;100.00;54231.19;5051725;28;20040;-71
2023/06/08 03:01:14;;;;;;;72.13;31.75;;;;;;;-144.73;100.00;54247.59;5068769;28;20165;-71
2023/06/08 03:03:44;;;;;;;69.00;27.42;;;;;;;-144.73;100.00;54231.19;5068838;28;20033;-72
2023/06/08 03:06:12;;;;;;;52.55;24.27;;;;;;;-144.73;100.00;54206.56;5050548;28;20032;-72
2023/06/08 03:08:38;;;;;;;54.33;25.05;;;;;;;-144.73;100.00;54280.44;5050507;28;20032;-71
2023/06/08 03:11:04;;;;;;;50.55;22.85;;;;;;;-144.73;100.00;54276.34;5051562;28;20383;-72
2023/06/08 03:13:29;;;;;;;44.80;23.17;;;;;;;-144.73;100.00;54239.41;5051157;28;20036;-72
2023/06/08 03:15:55;;;;;;;40.83;22.02;;;;;;;-144.73;100.00;54286.59;5051472;28;20090;-71
2023/06/08 03:18:22;;;;;;;66.72;22.20;;;;;;;-144.73;100.00;54259.91;5068088;28;20484;-71
2023/06/08 03:20:51;;;;;;;56.17;22.48;;;;;;;-144.73;100.00;54251.72;5050800;28;20020;-71
2023/06/08 03:23:19;;;;;;;45.85;23.33;;;;;;;-144.73;100.00;54247.59;5068465;28;20032;-72
2023/06/08 03:25:49;;;;;;;40.95;22.33;;;;;;;-144.73;100.00;54292.75;5049765;28;20032;-71
2023/06/08 03:28:17;;;;;;;40.90;20.42;;;;;;;-144.73;100.00;54259.91;5068728;28;20021;-72
2023/06/08 03:30:42;;;;;;;36.92;20.10;;;;;;;-144.73;100.00;54305.06;5050723;28;20074;-72
2023/06/08 03:33:07;;;;;;;45.22;22.45;;;;;;;-144.73;100.00;54261.97;5068351;28;20063;-71
2023/06/08 03:35:33;;;;;;;88.80;23.98;;;;;;;-144.73;100.00;54276.34;5068505;28;20028;-72
2023/06/08 03:37:58;;;;;;;42.90;20.52;;;;;;;-144.73;100.00;54255.81;5068109;28;20024;-72
2023/06/08 03:40:23;;;;;;;114.97;24.90;;;;;;;-144.73;100.00;54237.34;5050849;28;20036;-72
2023/06/08 03:42:50;;;;;;;151.38;25.02;;;;;;;-144.73;100.00;54247.59;5050764;28;20488;-71
2023/06/08 03:45:19;;;;;;;35.42;20.90;;;;;;;-144.73;100.00;54288.66;5057535;28;20032;-72
2023/06/08 03:47:45;;;;;;;73.80;24.20;;;;;;;-144.73;100.00;54259.91;5054159;28;20040;-71
2023/06/08 03:50:13;;;;;;;43.92;22.75;;;;;;;-144.73;100.00;54247.59;5058211;28;20024;-71
2023/06/08 03:52:39;;;;;;;48.35;24.15;;;;;;;-144.73;100.00;54243.50;5064514;28;20040;-71
2023/06/08 03:55:08;;;;;;;41.78;22.73;;;;;;;-144.73;100.00;54303.03;5048394;28;20513;-72
2023/06/08 03:57:34;;;;;;;61.75;24.30;;;;;;;-144.73;100.00;54247.59;5048984;28;20057;-72
2023/06/08 03:59:59;;;;;;;64.75;26.70;;;;;;;-144.73;100.00;54264.03;5050620;28;20063;-72
2023/06/08 04:02:25;;;;;;;47.60;23.00;;;;;;;-144.73;100.00;54251.72;5064066;28;20491;-71
2023/06/08 04:04:53;;;;;;;49.67;23.13;;;;;;;-144.73;100.00;54288.66;5059942;28;20082;-72
2023/06/08 04:07:20;;;;;;;60.53;24.35;;;;;;;-144.73;100.00;54276.34;5057673;28;20128;-72
2023/06/08 04:09:46;;;;;;;48.33;23.23;;;;;;;-144.73;100.00;54243.50;5054037;28;20064;-72
2023/06/08 04:12:11;;;;;;;64.50;24.13;;;;;;;-144.73;100.00;54276.34;5050602;28;20049;-73
2023/06/08 04:14:36;;;;;;;43.35;22.67;;;;;;;-144.73;100.00;54284.56;5050153;28;20092;-72
2023/06/08 04:17:02;;;;;;;105.88;28.23;;;;;;;-144.73;100.00;54247.59;5067806;28;20039;-72
2023/06/08 04:19:27;;;;;;;46.08;23.50;;;;;;;-144.73;100.00;54309.19;5048243;28;20032;-72
2023/06/08 04:21:56;;;;;;;43.65;22.10;;;;;;;-144.73;100.00;54264.03;5050657;28;20029;-72
2023/06/08 04:24:33;;;;;;;44.97;23.95;;;;;;;-144.73;100.00;54245.56;5050396;28;20531;-72
2023/06/08 04:26:58;;;;;;;53.05;26.25;;;;;;;-144.73;100.00;54288.66;5064221;28;20135;-71
2023/06/08 04:29:23;;;;;;;49.03;24.90;;;;;;;-144.73;100.00;54259.91;5049733;28;20444;-72
2023/06/08 04:31:49;;;;;;;43.30;23.67;;;;;;;-144.73;100.00;54247.59;5050090;28;20033;-72
2023/06/08 04:34:14;;;;;;;52.30;23.67;;;;;;;-144.73;100.00;54288.66;5058598;28;20078;-72
2023/06/08 04:36:42;;;;;;;41.80;23.35;;;;;;;-144.73;100.00;54292.75;5068816;28;20448;-71
2023/06/08 04:39:08;;;;;;;50.70;25.45;;;;;;;-144.73;100.00;54292.75;5053184;28;20027;-71
2023/06/08 04:41:34;;;;;;;46.53;23.73;;;;;;;-144.73;100.00;54276.34;5064758;28;20115;-71
2023/06/08 04:44:01;;;;;;;44.72;25.27;;;;;;;-144.73;100.00;54243.50;5068470;28;20100;-71
2023/06/08 04:46:28;;;;;;;68.50;26.10;;;;;;;-144.73;100.00;54264.03;5045152;28;20025;-71
2023/06/08 04:48:55;;;;;;;56.92;26.35;;;;;;;-144.73;100.00;54325.59;5067920;28;20482;-71
2023/06/08 04:51:23;;;;;;;50.88;26.70;;;;;;;-144.73;100.00;54261.97;5049661;28;20036;-71
2023/06/08 04:53:51;;;;;;;54.97;29.40;;;;;;;-144.73;100.00;54292.75;5066503;28;20028;-71
2023/06/08 04:56:18;;;;;;;53.83;26.88;;;;;;;-144.73;100.00;54259.91;5060567;28;20039;-71
2023/06/08 04:58:43;;;;;;;51.70;28.38;;;;;;;-144.73;100.00;54286.59;5067724;28;20029;-71
2023/06/08 05:01:08;;;;;;;52.78;26.42;;;;;;;-144.73;100.00;54325.59;5072732;28;20157;-71
2023/06/08 05:03:34;;;;;;;48.67;25.88;;;;;;;-144.73;100.00;54278.41;5051553;28;20033;-71
2023/06/08 05:05:59;;;;;;;57.85;31.38;;;;;;;-144.73;100.00;54255.81;5069128;28;20035;-71
2023/06/08 05:08:24;;;;;;;63.53;32.45;;;;;;;-144.73;100.00;54249.66;5068731;28;20044;-71
2023/06/08 05:10:50;;;;;;;71.95;35.83;;;;;;;-144.73;100.00;54245.56;5070713;28;20021;-71
2023/06/08 05:13:15;;;;;;;48.92;29.48;;;;;;;-144.73;100.00;54288.66;5071032;28;20043;-71
2023/06/08 05:15:40;;;;;;;58.40;30.85;;;;;;;-144.73;100.00;54325.59;5052784;28;20040;-71
2023/06/08 05:18:06;;;;;;;52.63;29.52;;;;;;;-144.73;100.00;54280.44;5050619;28;20037;-71
2023/06/08 05:20:31;;;;;;;59.42;33.80;;;;;;;-144.73;100.00;54292.75;5071725;28;20047;-71
2023/06/08 05:22:58;;;;;;;66.80;33.63;;;;;;;-144.73;100.00;54288.66;5053447;28;20063;-71
2023/06/08 05:25:24;;;;;;;62.30;35.08;;;;;;;-144.73;100.00;54278.41;5048961;28;20020;-71
2023/06/08 05:27:49;;;;;;;61.03;32.17;;;;;;;-144.73;100.00;54276.34;5049237;28;20121;-71
2023/06/08 05:30:14;;;;;;;66.95;32.63;;;;;;;-144.73;100.00;54288.66;5063744;28;20051;-71
2023/06/08 05:32:40;;;;;;;66.47;32.92;;;;;;;-144.73;100.00;54321.50;5056752;28;20040;-71
2023/06/08 05:35:06;;;;;;;57.47;30.05;;;;;;;-144.73;100.00;54255.81;5051057;28;20051;-71
2023/06/08 05:37:31;;;;;;;68.30;33.55;;;;;;;-144.73;100.00;54280.44;5073505;28;20364;-72
2023/06/08 05:39:56;;;;;;;64.22;33.65;;;;;;;-144.73;100.00;54243.50;5052809;28;20138;-71
2023/06/08 05:42:22;;;;;;;59.30;31.00;;;;;;;-144.73;100.00;54313.28;5051995;28;20545;-72
2023/06/08 05:44:47;;;;;;;55.85;29.23;;;;;;;-144.73;100.00;54294.81;5052728;28;20055;-72
2023/06/08 05:47:13;;;;;;;65.13;34.17;;;;;;;-144.73;100.00;54280.44;5050845;28;20033;-72
2023/06/08 05:49:38;;;;;;;62.60;32.80;;;;;;;-144.73;100.00;54276.34;5052873;28;20028;-72
2023/06/08 05:52:04;;;;;;;76.22;37.90;;;;;;;-144.73;100.00;54296.88;5049449;28;20167;-72
2023/06/08 05:54:29;;;;;;;51.70;30.80;;;;;;;-144.73;100.00;54298.91;5070950;28;20051;-72
2023/06/08 05:56:55;;;;;;;62.53;30.25;;;;;;;-144.73;100.00;54251.72;5070460;28;20109;-72
2023/06/08 05:59:20;;;;;;;56.15;29.92;;;;;;;-144.73;100.00;54268.13;5052362;28;20025;-72
2023/06/08 06:01:47;;;;;;;62.85;34.50;;;;;;;-144.73;100.00;54251.72;5052232;28;20032;-72
2023/06/08 06:04:12;;;;;;;59.65;33.53;;;;;;;-144.73;100.00;54278.41;5063239;28;20021;-72
2023/06/08 06:06:38;;;;;;;68.88;34.15;;;;;;;-144.73;100.00;54300.97;5064102;28;20120;-72
2023/06/08 06:09:03;;;;;;;63.45;32.63;;;;;;;-144.73;100.00;54280.44;5070347;28;20020;-72
2023/06/08 06:11:29;;;;;;;59.30;30.20;;;;;;;-144.73;100.00;54305.06;5049508;28;20119;-72
2023/06/08 06:13:56;;;;;;;55.63;30.65;;;;;;;-144.73;100.00;54276.34;5070489;28;20072;-72
2023/06/08 06:16:21;;;;;;;50.05;28.90;;;;;;;-144.73;100.00;54259.91;5052464;28;20040;-72
2023/06/08 06:18:46;;;;;;;51.72;29.17;;;;;;;-144.73;100.00;54305.06;5069626;28;20078;-72
2023/06/08 06:21:12;;;;;;;60.47;30.90;;;;;;;-144.73;100.00;54280.44;5052217;28;20074;-70
2023/06/08 06:23:38;;;;;;;59.03;32.15;;;;;;;-144.73;100.00;54266.06;5044899;28;20079;-71
2023/06/08 06:26:06;;;;;;;52.03;30.30;;;;;;;-144.73;100.00;54276.34;5045953;28;20056;-71
2023/06/08 06:28:32;;;;;;;51.67;28.45;;;;;;;-144.73;100.00;54235.28;5048412;28;20064;-70
2023/06/08 06:31:00;;;;;;;53.53;28.05;;;;;;;-144.73;100.00;54255.81;5052244;28;20124;-71
2023/06/08 06:33:30;;;;;;;55.38;29.40;;;;;;;-144.73;100.00;54292.75;5064290;28;20212;-71
2023/06/08 06:35:58;;;;;;;48.25;29.05;;;;;;;-144.73;100.00;54294.81;5040376;28;20037;-71
2023/06/08 06:38:24;;;;;;;53.80;26.17;;;;;;;-144.73;100.00;54225.03;5044572;28;20047;-72
2023/06/08 06:40:53;;;;;;;47.08;25.27;;;;;;;-144.73;100.00;54276.34;5042890;28;20021;-71
2023/06/08 06:43:22;;;;;;;46.88;24.45;;;;;;;-144.73;100.00;54251.72;5044493;28;20068;-71
2023/06/08 06:45:51;;;;;;;48.55;24.92;;;;;;;-144.73;100.00;54284.56;5040156;28;20032;-72
2023/06/08 06:48:20;;;;;;;58.88;28.45;;;;;;;-144.73;100.00;54245.56;5057312;28;20025;-71
2023/06/08 06:50:46;;;;;;;46.08;28.08;;;;;;;-144.73;100.00;54268.13;5039055;28;20033;-73
2023/06/08 06:53:11;;;;;;;44.13;24.83;;;;;;;-144.73;100.00;54313.28;5037308;28;20106;-72
2023/06/08 06:55:38;;;;;;;50.08;31.17;;;;;;;-144.73;100.00;54296.88;5038028;28;20029;-71
2023/06/08 06:58:04;;;;;;;49.67;26.17;;;;;;;-144.73;100.00;54255.81;5057807;28;20053;-69
2023/06/08 07:00:32;;;;;;;50.28;25.90;;;;;;;-144.73;100.00;54300.97;5059858;28;20043;-70
2023/06/08 07:02:58;;;;;;;44.65;25.27;;;;;;;-144.73;100.00;54288.66;5056494;28;20025;-70
2023/06/08 07:05:24;;;;;;;54.10;25.75;;;;;;;-144.73;100.00;54251.72;5043185;28;20024;-71
2023/06/08 07:07:49;;;;;;;45.10;24.25;;;;;;;-144.73;100.00;54317.38;5060650;28;20045;-70
2023/06/08 07:10:15;;;;;;;49.28;23.48;;;;;;;-144.73;100.00;54255.81;5043358;28;20025;-70
2023/06/08 07:12:40;;;;;;;48.80;23.55;;;;;;;-144.73;100.00;54313.28;5039457;28;20601;-70
2023/06/08 07:15:06;;;;;;;59.53;27.25;;;;;;;-144.73;100.00;54276.34;5041664;28;20032;-71
2023/06/08 07:17:31;;;;;;;54.95;24.33;;;;;;;-144.73;100.00;54296.88;5058646;28;20123;-71
2023/06/08 07:19:58;;;;;;;43.25;25.23;;;;;;;-144.73;100.00;54309.19;5059078;28;20017;-72
2023/06/08 07:22:23;;;;;;;39.60;22.58;;;;;;;-144.73;100.00;54296.88;5036176;28;20094;-72
2023/06/08 07:24:49;;;;;;;42.08;24.25;;;;;;;-144.73;100.00;54309.19;5038923;28;20051;-72
2023/06/08 07:27:14;;;;;;;49.45;22.95;;;;;;;-144.73;100.00;54249.66;5040660;28;20028;-73
2023/06/08 07:29:39;;;;;;;43.72;22.63;;;;;;;-144.73;100.00;54247.59;5040465;28;20095;-73
2023/06/08 07:32:06;;;;;;;47.92;23.25;;;;;;;-144.73;100.00;54212.72;5035737;28;20147;-73
2023/06/08 07:34:32;;;;;;;49.03;22.88;;;;;;;-144.73;100.00;54231.19;5046214;28;20032;-71
2023/06/08 07:36:57;;;;;;;43.63;23.92;;;;;;;-144.73;100.00;54259.91;5067709;28;20032;-72
2023/06/08 07:39:22;;;;;;;49.03;23.63;;;;;;;-144.73;100.00;54268.13;5070316;28;20035;-72
2023/06/08 07:41:48;;;;;;;50.67;22.98;;;;;;;-144.73;100.00;54198.34;5050817;28;20037;-72
2023/06/08 07:44:13;;;;;;;51.28;23.55;;;;;;;-144.73;100.00;54214.78;5051111;28;20021;-71
2023/06/08 07:46:38;;;;;;;53.58;23.52;;;;;;;-144.73;100.00;54255.81;5049302;28;20079;-73
2023/06/08 07:49:04;;;;;;;40.22;21.60;;;;;;;-144.73;100.00;54255.81;5049669;28;20036;-72
2023/06/08 07:51:29;;;;;;;40.00;21.70;;;;;;;-144.73;98.90;54245.56;5047339;28;20031;-73
2023/06/08 07:53:55;;;;;;;51.80;21.70;;;;;;;-144.73;98.83;54247.59;5051677;28;20012;-72
2023/06/08 07:56:21;;;;;;;46.63;20.70;;;;;;;-144.73;99.99;54261.97;5051502;28;20035;-73
2023/06/08 07:58:46;;;;;;;46.65;21.92;;;;;;;-144.73;97.85;54249.66;5070603;28;20024;-72
2023/06/08 08:01:11;;;;;;;43.65;20.52;;;;;;;-144.73;95.74;54280.44;5071019;28;20027;-72
2023/06/08 08:03:37;;;;;;;38.13;19.50;;;;;;;-144.73;92.74;54218.88;5068728;28;20036;-71
2023/06/08 08:06:03;;;;;;;35.30;18.02;;;;;;;-144.73;94.01;54216.81;5057171;28;20048;-72
2023/06/08 08:08:28;;;;;;;41.47;19.10;;;;;;;-144.73;92.36;54243.50;5055515;28;20040;-72
2023/06/08 08:10:54;;;;;;;38.20;17.85;;;;;;;-144.73;92.13;54216.81;5051498;28;20024;-72
2023/06/08 08:13:19;;;;;;;38.50;18.42;;;;;;;-144.73;90.90;54202.44;5063677;28;20139;-72
2023/06/08 08:15:45;;;;;;;40.42;18.33;;;;;;;-144.73;86.86;54245.56;5050465;28;20114;-72
2023/06/08 08:18:12;;;;;;;36.25;17.63;;;;;;;-144.73;86.80;54280.44;5048501;28;20154;-73
2023/06/08 08:20:58;;;;;;;44.15;17.92;;;;;;;-144.73;84.96;54239.41;5068375;28;20468;-73
2023/06/08 08:23:23;;;;;;;36.47;17.52;;;;;;;-144.73;85.52;54231.19;5050208;28;20055;-72
2023/06/08 08:25:48;;;;;;;30.25;16.27;;;;;;;-144.73;83.24;54198.34;5050726;28;20103;-73
2023/06/08 08:28:14;;;;;;;34.55;14.90;;;;;;;-144.73;81.80;54280.44;5048915;28;20029;-72
2023/06/08 08:30:39;;;;;;;37.83;15.70;;;;;;;-144.73;81.14;54225.03;5071132;28;20028;-73
2023/06/08 08:33:04;;;;;;;46.05;18.67;;;;;;;-144.73;80.54;54218.88;5072316;28;20036;-72
2023/06/08 08:35:31;;;;;;;35.25;16.45;;;;;;;-144.73;82.58;54225.03;5051329;28;20029;-72
2023/06/08 08:37:56;;;;;;;29.45;16.42;;;;;;;-144.73;83.41;54196.28;5053888;28;20051;-72
2023/06/08 08:40:23;;;;;;;30.60;16.27;;;;;;;-144.73;83.79;54231.19;5055252;28;20471;-72
2023/06/08 08:42:56;;;;;;;34.47;15.88;;;;;;;-144.73;81.88;54235.28;5054375;28;20024;-72
2023/06/08 08:45:28;;;;;;;39.33;17.45;;;;;;;-144.73;79.56;54198.34;5053824;28;20024;-72
2023/06/08 08:47:53;;;;;;;;;;;;;;;-144.73;78.39;54235.28;5054423;28;20507;-73
2023/06/08 08:50:19;;;;;;;30.20;15.95;;;;;;;-144.73;78.48;54239.41;5072457;28;19912;-73
2023/06/08 08:52:45;;;;;;;35.75;15.20;;;;;;;-144.73;77.02;54239.41;5054079;28;20086;-72
2023/06/08 08:55:11;;;;;;;36.42;16.52;;;;;;;-144.73;75.22;54231.19;5054641;28;20032;-72
2023/06/08 08:57:37;;;;;;;35.10;16.20;;;;;;;-144.73;74.51;54202.44;5050832;28;20112;-73
2023/06/08 09:00:06;;;;;;;37.38;15.65;;;;;;;-144.73;73.11;54218.88;5051079;28;20105;-73
2023/06/08 09:02:35;;;;;;;35.80;15.70;;;;;;;-144.73;74.84;54233.25;5053763;28;20024;-73
2023/06/08 09:05:03;;;;;;;30.67;14.60;;;;;;;-144.73;75.84;54192.19;5051026;28;20025;-72
2023/06/08 09:07:29;;;;;;;29.98;13.93;;;;;;;-144.73;74.94;54231.19;5071233;28;20040;-73
2023/06/08 09:10:12;;;;;;;28.45;14.80;;;;;;;-144.73;71.88;54198.34;5054038;28;20082;-73
2023/06/08 09:12:42;;;;;;;42.72;16.77;;;;;;;-144.73;74.94;54247.59;5052556;28;20066;-73
2023/06/08 09:15:12;;;;;;;28.08;13.32;;;;;;;-144.73;71.64;54214.78;5051373;28;20021;-73
2023/06/08 09:17:38;;;;;;;30.05;13.68;;;;;;;-144.73;69.04;54190.13;5052627;28;20032;-72
2023/06/08 09:20:10;;;;;;;33.60;14.00;;;;;;;-144.73;68.57;54194.25;5050964;28;20017;-73
2023/06/08 09:22:36;;;;;;;30.77;14.73;;;;;;;-144.73;70.97;54218.88;5070973;28;20140;-73
2023/06/08 09:25:03;;;;;;;46.67;14.73;;;;;;;-144.73;70.26;54161.41;5071214;28;20059;-73
2023/06/08 09:27:30;;;;;;;27.23;13.63;;;;;;;-144.73;69.16;54220.94;5053346;28;20024;-73
2023/06/08 09:29:57;;;;;;;32.72;12.43;;;;;;;-144.73;67.18;54206.56;5071177;28;20027;-74
2023/06/08 09:32:31;;;;;;;27.63;13.50;;;;;;;-144.73;64.68;54202.44;5052715;28;20135;-73
2023/06/08 09:35:01;;;;;;;34.17;13.95;;;;;;;-144.73;62.93;54233.25;5071675;28;20038;-73
2023/06/08 09:37:31;;;;;;;26.73;14.10;;;;;;;-144.73;62.93;54202.44;5053333;28;20029;-73
2023/06/08 09:40:04;;;;;;;25.45;11.85;;;;;;;-144.73;61.96;54198.34;5053324;28;20267;-73
2023/06/08 09:42:43;;;;;;;32.00;14.18;;;;;;;-144.73;62.29;54210.66;5067718;28;20116;-73
2023/06/08 09:45:11;;;;;;;25.23;13.65;;;;;;;-144.73;64.08;54204.50;5051546;28;20035;-73
2023/06/08 09:47:36;;;;;;;28.60;13.65;;;;;;;-144.73;61.00;54194.25;5049740;28;20025;-73
2023/06/08 09:50:02;;;;;;;30.83;14.18;;;;;;;-144.73;58.41;54190.13;5052636;28;20017;-73
2023/06/08 09:52:31;;;;;;;31.02;14.77;;;;;;;-144.73;59.30;54190.13;5052562;28;20036;-74
2023/06/08 09:54:56;;;;;;;28.63;14.02;;;;;;;-144.73;57.23;54190.13;5055077;28;20028;-74
2023/06/08 09:57:23;;;;;;;28.23;13.60;;;;;;;-144.73;56.28;54181.94;5050986;28;20056;-73
2023/06/08 10:00:17;;;;;;;35.15;14.20;;;;;;;-144.73;55.79;54198.34;5052778;28;20081;-73
2023/06/08 10:03:08;;;;;;;27.17;14.35;;;;;;;-144.73;56.13;54204.50;5068167;28;20040;-72
2023/06/08 10:05:36;;;;;;;22.87;12.47;;;;;;;-144.73;53.88;54169.63;5066222;28;20500;-73
2023/06/08 10:08:05;;;;;;;32.35;13.98;;;;;;;-144.73;52.54;54198.34;5070456;28;20028;-73
2023/06/08 10:10:35;;;;;;;27.30;14.00;;;;;;;-144.73;55.20;54214.78;5071333;28;20028;-73
2023/06/08 10:13:01;;;;;;;39.83;14.18;;;;;;;-144.73;53.20;54194.25;5051596;28;20024;-73
2023/06/08 10:15:30;;;;;;;25.95;14.27;;;;;;;-144.73;54.44;54198.34;5070137;28;20051;-73
2023/06/08 10:17:57;;;;;;;31.95;13.40;;;;;;;-144.73;51.98;54161.41;5051898;28;20503;-73
2023/06/08 10:20:23;;;;;;;23.98;14.75;;;;;;;-144.73;52.50;54181.94;5052336;28;20039;-73
2023/06/08 10:22:49;;;;;;;27.00;12.80;;;;;;;-144.73;52.18;54196.28;5051999;28;20086;-73
2023/06/08 10:25:16;;;;;;;26.15;13.15;;;;;;;-144.73;51.15;54177.81;5051074;28;20078;-73
2023/06/08 10:28:06;;;;;;;28.75;14.10;;;;;;;-144.73;51.37;54188.09;5049449;28;20033;-72
2023/06/08 10:30:40;;;;;;;23.98;12.60;;;;;;;-144.73;50.46;54181.94;5060378;28;20144;-73
2023/06/08 10:33:15;;;;;;;42.60;13.70;;;;;;;-144.73;49.76;54186.03;5049461;28;20025;-72
2023/06/08 10:35:41;;;;;;;22.05;12.75;;;;;;;-144.73;48.53;54177.81;5054916;28;20433;-73
2023/06/08 10:38:12;;;;;;;23.48;13.13;;;;;;;-144.73;50.19;54181.94;5060211;28;20086;-72
2023/06/08 10:40:43;;;;;;;24.05;13.18;;;;;;;-144.73;49.83;54153.19;5068724;28;20034;-73
2023/06/08 10:43:08;;;;;;;22.53;11.40;;;;;;;-144.73;50.02;54222.97;5067749;28;20027;-73
2023/06/08 10:45:37;;;;;;;19.20;12.07;;;;;;;-144.73;47.43;54153.19;5052356;28;20259;-72
2023/06/08 10:48:08;;;;;;;24.80;11.90;;;;;;;-144.73;48.02;54136.78;5069902;28;20059;-72
2023/06/08 10:50:38;;;;;;;20.67;11.25;;;;;;;-144.73;48.38;54169.63;5052108;28;20499;-72
2023/06/08 10:53:04;;;;;;;23.60;11.32;;;;;;;-144.73;48.51;54157.31;5050265;28;20021;-72
2023/06/08 10:55:29;;;;;;;27.15;10.73;;;;;;;-144.73;47.62;54173.72;5049267;28;20021;-72
2023/06/08 10:58:05;;;;;;;25.73;11.30;;;;;;;-144.73;45.86;54157.31;5051048;28;20102;-72